createdAt,value
2023-03-06T00:06:33.515Z,99620.98
2023-03-06T00:21:36.550Z,99617.63
2023-03-06T00:36:39.443Z,99607.17
2023-03-06T00:51:42.207Z,99589.18
2023-03-06T01:22:02.643Z,99554.00
2023-03-06T01:37:05.440Z,99538.02
2023-03-06T01:52:14.893Z,99534.64
2023-03-06T02:07:21.456Z,99521.19
2023-03-06T02:22:34.846Z,99498.80
2023-03-06T02:37:37.773Z,99488.16
2023-03-06T02:52:40.655Z,99474.43
2023-03-06T03:07:43.888Z,99470.79
2023-03-06T03:22:53.756Z,99454.73
2023-03-06T03:37:56.881Z,99436.70
2023-03-06T03:52:59.846Z,99432.55
2023-03-06T04:08:03.142Z,99424.73
2023-03-06T04:23:06.118Z,99413.52
2023-03-06T04:38:09.087Z,99396.36
2023-03-06T04:53:13.947Z,99379.39
2023-03-06T05:08:18.018Z,99364.21
2023-03-06T05:23:38.067Z,99352.22
2023-03-06T05:38:40.554Z,99343.05
2023-03-06T05:53:43.599Z,99336.84
2023-03-06T06:08:46.728Z,99327.42
2023-03-06T06:24:04.137Z,99316.92
2023-03-06T06:39:08.587Z,99315.77
2023-03-06T06:54:12.202Z,99311.63
2023-03-06T07:09:15.008Z,99304.51
2023-03-06T07:24:17.596Z,99299.45
2023-03-06T07:39:20.281Z,99296.64
2023-03-06T07:54:22.754Z,99304.85
2023-03-06T08:09:40.336Z,99306.56
2023-03-06T08:24:42.838Z,99299.91
2023-03-06T08:39:45.350Z,99296.83
2023-03-06T08:54:48.054Z,99292.27
2023-03-06T09:09:51.115Z,99302.16
2023-03-06T09:24:53.924Z,99304.11
2023-03-06T09:39:57.558Z,99318.13
2023-03-06T09:55:20.136Z,99306.70
2023-03-06T10:11:02.338Z,99308.66
2023-03-06T10:26:22.093Z,99303.02
2023-03-06T10:41:32.361Z,99296.91
2023-03-06T10:56:40.475Z,99292.90
2023-03-06T11:12:21.876Z,99292.77
2023-03-06T11:27:37.826Z,99287.95
2023-03-06T11:42:59.044Z,99271.09
2023-03-06T11:58:53.694Z,99268.58
2023-03-06T12:14:18.220Z,99268.27
2023-03-06T12:29:55.252Z,99269.88
2023-03-06T12:45:30.578Z,99271.38
2023-03-06T13:00:36.798Z,99269.08
2023-03-06T13:15:46.556Z,99265.59
2023-03-06T13:30:50.915Z,99256.10
2023-03-06T13:45:55.272Z,99250.89
2023-03-06T14:01:27.564Z,99246.96
2023-03-06T14:16:49.499Z,99242.97
2023-03-06T14:32:00.290Z,99247.51
2023-03-06T14:47:32.626Z,99250.27
2023-03-06T15:02:35.807Z,99253.11
2023-03-06T15:17:53.132Z,99254.58
2023-03-06T15:33:26.148Z,99257.27
2023-03-06T15:48:28.950Z,99261.33
2023-03-06T16:03:46.401Z,99262.92
2023-03-06T16:18:49.242Z,99261.25
2023-03-06T16:33:51.962Z,99261.21
2023-03-06T16:48:55.257Z,99256.86
2023-03-06T17:04:12.499Z,99260.11
2023-03-06T17:19:15.496Z,99276.50
2023-03-06T17:34:19.250Z,99285.05
2023-03-06T17:49:24.571Z,99297.85
2023-03-06T18:04:27.495Z,99298.30
2023-03-06T18:19:30.416Z,99301.70
2023-03-06T18:34:33.388Z,99296.16
2023-03-06T18:49:39.851Z,99298.13
2023-03-06T19:04:52.413Z,99301.39
2023-03-06T19:20:40.465Z,99305.39
2023-03-06T19:35:43.625Z,99309.59
2023-03-06T19:50:47.985Z,99317.57
2023-03-06T20:05:51.646Z,99330.80
2023-03-06T20:21:00.098Z,99337.98
2023-03-06T20:36:03.492Z,99328.98
2023-03-06T20:51:19.842Z,99334.01
2023-03-06T21:06:23.696Z,99334.10
2023-03-06T21:21:31.608Z,99329.13
2023-03-06T21:36:35.117Z,99334.60
2023-03-06T21:51:38.407Z,99332.19
2023-03-06T22:06:41.371Z,99323.66
2023-03-06T22:21:44.069Z,99320.80
2023-03-06T22:37:02.068Z,99322.66
2023-03-06T22:52:19.662Z,99317.99
2023-03-06T23:07:23.006Z,99314.44
2023-03-06T23:22:26.070Z,99303.88
2023-03-06T23:37:28.579Z,99291.81
2023-03-06T23:52:45.903Z,99283.95
